Time;durP1;ratioP1;P1;durP2;ratioP2;P2;SDS_P1;SDS_P2;PMS_P1;PMS_P2;Temp;Humidity;BMP_temperature;BMP_pressure;BME280_temperature;BME280_humidity;BME280_pressure;Samples;Min_cycle;Max_cycle;Signal;HPM_P1;HPM_P2
2022/01/26 00:06:20;;;;;;;;;;;;;;;;;;5113342;28;20367;-74
2022/01/26 00:08:46;;;;;;;;;;;3.00;99.90;;;;;;5113926;28;19923;-74
2022/01/26 00:11:11;;;;;;;;;;;3.20;99.90;;;;;;5112865;28;19907;-74
2022/01/26 00:13:37;;;;;;;;;;;3.00;99.90;;;;;;5113426;28;19933;-73
2022/01/26 00:16:06;;;;;;;;;;;3.10;99.90;;;;;;5114079;28;20413;-73
2022/01/26 00:18:35;;;;;;;;;;;3.10;99.90;;;;;;5113288;28;19922;-73
2022/01/26 00:21:09;;;;;;;;;;;;;;;;;;5113622;28;19908;-74
2022/01/26 00:26:24;;;;;;;;;;;3.10;99.90;;;;;;5113544;28;20007;-73
2022/01/26 00:39:32;;;;;;;;;;;2.90;99.90;;;;;;5111465;28;19915;-74
2022/01/26 00:41:59;;;;;;;;;;;3.00;99.90;;;;;;5113356;28;20315;-74
2022/01/26 00:44:33;;;;;;;;;;;3.00;99.90;;;;;;5112803;28;19911;-74
2022/01/26 00:46:59;;;;;;;;;;;3.10;99.90;;;;;;5113042;28;20014;-74
2022/01/26 00:49:25;;;;;;;;;;;;;;;;;;5094524;28;19907;-74
2022/01/26 00:51:52;;;;;;;;;;;3.10;99.90;;;;;;5113386;28;19947;-74
2022/01/26 00:54:17;;;;;;;;;;;;;;;;;;5112665;28;19907;-74
2022/01/26 00:56:43;;;;;;;;;;;3.00;99.90;;;;;;5113199;28;19921;-73
2022/01/26 00:59:10;;;;;;;;;;;3.00;99.90;;;;;;5113201;28;19912;-73
2022/01/26 01:01:36;;;;;;;;;;;3.20;99.90;;;;;;5112970;28;19972;-73
2022/01/26 01:04:02;;;;;;;;;;;3.00;99.90;;;;;;5113193;28;19908;-73
2022/01/26 01:06:32;;;;;;;;;;;3.00;99.90;;;;;;5112176;28;19911;-74
2022/01/26 01:08:58;;;;;;;;;;;3.10;99.90;;;;;;5113772;28;19916;-73
2022/01/26 01:11:24;;;;;;;;;;;3.20;99.90;;;;;;5116662;28;19911;-74
2022/01/26 01:13:50;;;;;;;;;;;3.20;99.90;;;;;;5117199;28;19915;-73
2022/01/26 01:16:18;;;;;;;;;;;;;;;;;;5116323;28;19912;-74
2022/01/26 01:18:55;;;;;;;;;;;2.90;99.90;;;;;;5117317;28;19916;-73
2022/01/26 01:31:16;;;;;;;;;;;2.90;99.90;;;;;;5116916;28;19976;-73
2022/01/26 01:33:47;;;;;;;;;;;;;;;;;;5117055;28;19955;-73
2022/01/26 01:36:13;;;;;;;;;;;;;;;;;;5116700;28;20413;-79
2022/01/26 01:38:41;;;;;;;;;;;2.70;99.90;;;;;;5116759;28;19907;-73
2022/01/26 01:41:07;;;;;;;;;;;2.90;99.90;;;;;;5116646;28;19931;-73
2022/01/26 01:43:32;;;;;;;;;;;2.90;99.90;;;;;;5115665;28;20286;-73
2022/01/26 01:45:59;;;;;;;;;;;;;;;;;;5117065;28;19919;-73
2022/01/26 01:48:29;;;;;;;;;;;3.00;99.90;;;;;;5115450;28;19923;-74
2022/01/26 01:50:56;;;;;;;;;;;2.90;99.90;;;;;;5116288;28;19935;-73
2022/01/26 01:53:31;;;;;;;;;;;2.70;99.90;;;;;;5115857;28;19963;-73
2022/01/26 01:55:58;;;;;;;;;;;2.70;99.90;;;;;;5082414;28;19915;-73
2022/01/26 01:58:24;;;;;;;;;;;;;;;;;;5115791;28;19952;-73
2022/01/26 02:00:50;;;;;;;;;;;2.80;99.90;;;;;;5116307;28;20380;-74
2022/01/26 02:03:15;;;;;;;;;;;;;;;;;;5115718;28;19915;-79
2022/01/26 02:05:41;;;;;;;;;;;2.60;99.90;;;;;;5116231;28;19907;-73
2022/01/26 02:08:07;;;;;;;;;;;2.90;99.90;;;;;;5116058;28;19916;-73
2022/01/26 02:10:34;;;;;;;;;;;2.90;99.90;;;;;;5115191;28;20003;-73
2022/01/26 02:13:02;;;;;;;;;;;2.80;99.90;;;;;;5116103;28;19908;-73
2022/01/26 02:15:37;;;;;;;;;;;2.90;99.90;;;;;;5115446;28;19915;-73
2022/01/26 02:56:07;;;;;;;;;;;2.70;99.90;;;;;;5115288;28;19908;-74
2022/01/26 02:58:49;;;;;;;;;;;2.70;99.90;;;;;;5096268;28;19912;-74
2022/01/26 03:03:53;;;;;;;;;;;2.80;99.90;;;;;;5114511;28;19903;-73
2022/01/26 03:06:27;;;;;;;;;;;;;;;;;;5114238;28;20260;-77
2022/01/26 03:08:59;;;;;;;;;;;;;;;;;;5115037;28;19922;-73
2022/01/26 03:11:28;;;;;;;;;;;2.70;99.90;;;;;;5096160;28;20276;-74
2022/01/26 03:14:04;;;;;;;;;;;;;;;;;;5096305;28;19914;-74
2022/01/26 03:16:35;;;;;;;;;;;2.50;99.90;;;;;;5114285;28;19908;-74
2022/01/26 03:19:32;;;;;;;;;;;2.50;99.90;;;;;;5114874;28;19916;-74
2022/01/26 03:29:59;;;;;;;;;;;2.50;99.90;;;;;;5114444;28;20404;-74
2022/01/26 03:34:56;;;;;;;;;;;2.40;99.90;;;;;;5114487;28;20360;-73
2022/01/26 03:37:26;;;;;;;;;;;2.40;99.90;;;;;;5113825;28;19908;-74
2022/01/26 03:39:53;;;;;;;;;;;2.40;99.90;;;;;;5114289;28;20002;-73
2022/01/26 03:42:18;;;;;;;;;;;2.50;99.90;;;;;;5114390;28;19954;-73
2022/01/26 03:44:44;;;;;;;;;;;2.40;99.90;;;;;;5113561;28;19908;-74
2022/01/26 03:47:10;;;;;;;;;;;2.50;99.90;;;;;;5114034;28;19924;-73
2022/01/26 03:49:36;;;;;;;;;;;2.40;99.90;;;;;;5113653;28;20010;-74
2022/01/26 03:52:01;;;;;;;;;;;;;;;;;;5096072;28;19951;-74
2022/01/26 03:54:27;;;;;;;;;;;;;;;;;;5113540;28;19907;-74
2022/01/26 03:56:53;;;;;;;;;;;2.50;99.90;;;;;;5114034;28;19961;-73
2022/01/26 03:59:19;;;;;;;;;;;;;;;;;;5113914;28;19911;-73
2022/01/26 04:01:45;;;;;;;;;;;;;;;;;;5113348;28;20375;-73
2022/01/26 04:04:10;;;;;;;;;;;2.60;99.90;;;;;;5114270;28;19996;-73
2022/01/26 04:06:36;;;;;;;;;;;;;;;;;;5113321;28;20363;-73
2022/01/26 04:09:04;;;;;;;;;;;2.40;99.90;;;;;;5113935;28;20366;-73
2022/01/26 04:11:36;;;;;;;;;;;2.60;99.90;;;;;;5113195;28;19912;-73
2022/01/26 04:14:04;;;;;;;;;;;2.40;99.90;;;;;;5095252;28;19943;-73
2022/01/26 04:16:30;;;;;;;;;;;;;;;;;;5113112;28;19915;-73
2022/01/26 04:18:57;;;;;;;;;;;2.30;99.90;;;;;;5113871;28;20284;-73
2022/01/26 04:21:51;;;;;;;;;;;2.50;99.90;;;;;;5113630;28;19965;-73
2022/01/26 04:26:48;;;;;;;;;;;2.40;99.90;;;;;;5112980;28;19940;-73
2022/01/26 04:29:20;;;;;;;;;;;2.40;99.90;;;;;;5113649;28;19912;-73
2022/01/26 04:31:46;;;;;;;;;;;;;;;;;;5112914;28;19911;-73
2022/01/26 04:34:12;;;;;;;;;;;2.40;99.90;;;;;;5113490;28;19914;-73
2022/01/26 04:36:51;;;;;;;;;;;2.20;99.90;;;;;;5112848;28;19940;-73
2022/01/26 04:39:21;;;;;;;;;;;2.30;99.90;;;;;;5113199;28;20367;-73
2022/01/26 04:42:00;;;;;;;;;;;2.30;99.90;;;;;;5112590;28;20371;-73
2022/01/26 04:44:31;;;;;;;;;;;2.20;99.90;;;;;;5112756;28;19908;-73
2022/01/26 04:46:56;;;;;;;;;;;2.30;99.90;;;;;;5113155;28;19942;-73
2022/01/26 04:49:22;;;;;;;;;;;2.30;99.90;;;;;;5113232;28;19916;-73
2022/01/26 04:51:48;;;;;;;;;;;2.50;99.90;;;;;;5112644;28;19950;-73
2022/01/26 04:54:13;;;;;;;;;;;2.20;99.90;;;;;;5113004;28;19933;-73
2022/01/26 04:56:39;;;;;;;;;;;2.30;99.90;;;;;;5112598;28;19908;-73
2022/01/26 04:59:04;;;;;;;;;;;2.30;99.90;;;;;;5112891;28;19915;-73
2022/01/26 05:01:30;;;;;;;;;;;2.20;99.90;;;;;;5112287;28;20018;-73
2022/01/26 05:03:56;;;;;;;;;;;;;;;;;;5113080;28;19908;-73
2022/01/26 05:06:22;;;;;;;;;;;2.20;99.90;;;;;;5113183;28;19942;-73
2022/01/26 05:08:48;;;;;;;;;;;;;;;;;;5112508;28;19911;-73
2022/01/26 05:11:19;;;;;;;;;;;2.10;99.90;;;;;;5113109;28;19919;-73
2022/01/26 05:13:45;;;;;;;;;;;2.10;99.90;;;;;;5112491;28;19956;-73
2022/01/26 05:16:11;;;;;;;;;;;2.00;99.90;;;;;;5112822;28;19912;-73
2022/01/26 05:18:37;;;;;;;;;;;;;;;;;;5112103;28;19935;-73
2022/01/26 05:21:03;;;;;;;;;;;1.90;99.90;;;;;;5113062;28;20003;-73
2022/01/26 05:23:28;;;;;;;;;;;1.90;99.90;;;;;;5112424;28;19973;-74
2022/01/26 05:25:54;;;;;;;;;;;;;;;;;;5112930;28;20015;-73
2022/01/26 05:28:19;;;;;;;;;;;2.00;99.90;;;;;;5112864;28;19959;-73
2022/01/26 05:30:45;;;;;;;;;;;2.00;99.90;;;;;;5112291;28;20390;-73
2022/01/26 05:33:10;;;;;;;;;;;2.10;99.90;;;;;;5094821;28;19912;-73
2022/01/26 05:35:36;;;;;;;;;;;;;;;;;;5112138;28;19912;-74
2022/01/26 05:38:02;;;;;;;;;;;2.00;99.90;;;;;;5112863;28;19991;-73
2022/01/26 05:40:28;;;;;;;;;;;;;;;;;;5112799;28;19907;-77
2022/01/26 05:42:54;;;;;;;;;;;2.00;99.90;;;;;;5094614;28;19945;-74
2022/01/26 05:45:39;;;;;;;;;;;;;;;;;;5094473;28;19930;-73
2022/01/26 05:48:10;;;;;;;;;;;;;;;;;;5112371;28;20363;-74
2022/01/26 05:50:37;;;;;;;;;;;2.00;99.90;;;;;;5112246;28;19939;-74
2022/01/26 05:53:03;;;;;;;;;;;2.00;99.90;;;;;;5112699;28;19915;-74
2022/01/26 05:55:29;;;;;;;;;;;;;;;;;;5114061;28;19912;-74
2022/01/26 05:57:54;;;;;;;;;;;2.00;99.90;;;;;;5116398;28;19908;-73
2022/01/26 06:00:20;;;;;;;;;;;2.10;99.90;;;;;;5116260;28;20260;-73
2022/01/26 06:02:45;;;;;;;;;;;2.00;99.90;;;;;;5115636;28;19911;-73
2022/01/26 06:05:11;;;;;;;;;;;;;;;;;;5116162;28;19907;-73
2022/01/26 06:07:37;;;;;;;;;;;1.90;99.90;;;;;;5115418;28;20325;-73
2022/01/26 06:10:03;;;;;;;;;;;2.00;99.90;;;;;;5116078;28;20309;-74
2022/01/26 06:12:33;;;;;;;;;;;;;;;;;;5115924;28;19911;-74
2022/01/26 06:14:59;;;;;;;;;;;;;;;;;;5097564;28;20010;-74
2022/01/26 06:17:24;;;;;;;;;;;1.90;99.90;;;;;;5097456;28;19963;-73
2022/01/26 06:19:50;;;;;;;;;;;1.90;99.90;;;;;;5115358;28;20394;-73
2022/01/26 06:22:15;;;;;;;;;;;1.90;99.90;;;;;;5115613;28;19908;-73
2022/01/26 06:24:41;;;;;;;;;;;1.90;99.90;;;;;;5115001;28;19908;-73
2022/01/26 06:27:07;;;;;;;;;;;2.00;99.90;;;;;;5097832;28;19908;-73
2022/01/26 06:29:32;;;;;;;;;;;2.00;99.90;;;;;;5096753;28;19915;-74
2022/01/26 06:31:58;;;;;;;;;;;1.90;99.90;;;;;;5115536;28;19908;-73
2022/01/26 06:34:23;;;;;;;;;;;2.00;99.90;;;;;;5097059;28;19908;-73
2022/01/26 06:36:49;;;;;;;;;;;;;;;;;;5108153;28;19916;-73
2022/01/26 06:39:14;;;;;;;;;;;2.00;99.90;;;;;;5106680;28;19969;-74
2022/01/26 06:41:48;;;;;;;;;;;;;;;;;;5104470;28;19915;-74
2022/01/26 06:44:28;;;;;;;;;;;1.90;99.90;;;;;;5086418;28;19908;-74
2022/01/26 06:51:48;;;;;;;;;;;;;;;;;;5114726;28;19908;-73
2022/01/26 06:54:14;;;;;;;;;;;;;;;;;;5115342;28;19908;-72
2022/01/26 06:56:39;;;;;;;;;;;2.10;99.90;;;;;;5115068;28;19961;-73
2022/01/26 06:59:05;;;;;;;;;;;2.00;99.90;;;;;;5115645;28;19908;-73
2022/01/26 07:01:30;;;;;;;;;;;2.10;99.90;;;;;;5115149;28;19908;-72
2022/01/26 07:03:56;;;;;;;;;;;2.20;99.90;;;;;;5114576;28;19907;-71
2022/01/26 07:06:21;;;;;;;;;;;2.20;99.90;;;;;;5114832;28;20325;-71
2022/01/26 07:08:47;;;;;;;;;;;2.10;99.90;;;;;;5114293;28;20015;-71
2022/01/26 07:11:13;;;;;;;;;;;;;;;;;;5114923;28;19955;-71
2022/01/26 07:13:40;;;;;;;;;;;;;;;;;;5096082;28;19962;-71
2022/01/26 07:21:35;;;;;;;;;;;2.10;99.90;;;;;;5114247;28;20013;-72
2022/01/26 07:24:00;;;;;;;;;;;2.00;99.90;;;;;;5114535;28;19939;-72
2022/01/26 07:26:29;;;;;;;;;;;2.00;99.90;;;;;;5114637;28;19933;-71
2022/01/26 07:28:58;;;;;;;;;;;2.10;99.90;;;;;;5106965;28;19949;-71
2022/01/26 07:31:24;;;;;;;;;;;;;;;;;;5114468;28;19908;-70
2022/01/26 07:33:57;;;;;;;;;;;2.00;99.90;;;;;;5113907;28;19908;-72
2022/01/26 07:36:24;;;;;;;;;;;2.00;99.90;;;;;;5114555;28;19958;-70
2022/01/26 07:38:50;;;;;;;;;;;2.00;99.90;;;;;;5113696;28;19912;-73
2022/01/26 07:41:16;;;;;;;;;;;2.00;99.90;;;;;;5113889;28;19907;-72
2022/01/26 07:43:42;;;;;;;;;;;1.90;99.90;;;;;;5113618;28;20352;-68
2022/01/26 07:46:08;;;;;;;;;;;;;;;;;;5114258;28;19907;-69
2022/01/26 07:48:34;;;;;;;;;;;1.80;99.90;;;;;;5114300;28;20006;-72
2022/01/26 07:50:59;;;;;;;;;;;1.90;99.90;;;;;;5095281;28;20398;-71
2022/01/26 07:53:25;;;;;;;;;;;1.90;99.90;;;;;;5114246;28;20035;-73
2022/01/26 07:55:51;;;;;;;;;;;;;;;;;;5095285;28;20419;-69
2022/01/26 07:58:18;;;;;;;;;;;2.10;99.90;;;;;;5114156;28;19996;-69
2022/01/26 08:00:44;;;;;;;;;;;;;;;;;;5107025;28;19920;-73
2022/01/26 08:03:10;;;;;;;;;;;;;;;;;;5102593;28;19908;-70
2022/01/26 08:05:36;;;;;;;;;;;;;;;;;;5082801;28;19931;-83
2022/01/26 08:08:02;;;;;;;;;;;;;;;;;;5096754;28;20062;-72
2022/01/26 08:10:27;;;;;;;;;;;2.20;99.90;;;;;;5110055;28;19912;-71
2022/01/26 08:12:53;;;;;;;;;;;;;;;;;;5109805;28;19965;-73
2022/01/26 08:15:19;;;;;;;;;;;;;;;;;;5110577;28;19915;-72
2022/01/26 08:17:45;;;;;;;;;;;;;;;;;;5099345;28;20329;-74
2022/01/26 08:20:11;;;;;;;;;;;;;;;;;;5097765;28;19908;-73
2022/01/26 08:22:37;;;;;;;;;;;;;;;;;;5098626;28;20395;-85
2022/01/26 08:25:03;;;;;;;;;;;;;;;;;;5099020;28;19908;-73
2022/01/26 08:27:37;;;;;;;;;;;;;;;;;;5109661;28;19922;-72
2022/01/26 08:30:08;;;;;;;;;;;;;;;;;;5109597;28;19942;-73
2022/01/26 08:32:34;;;;;;;;;;;;;;;;;;5110184;28;19969;-71
2022/01/26 08:35:00;;;;;;;;;;;;;;;;;;5109405;28;20332;-72
2022/01/26 08:37:26;;;;;;;;;;;;;;;;;;5109649;28;20006;-71
2022/01/26 08:39:51;;;;;;;;;;;;;;;;;;5109288;28;19911;-73
2022/01/26 08:42:17;;;;;;;;;;;;;;;;;;5105483;28;19916;-71
2022/01/26 08:44:43;;;;;;;;;;;;;;;;;;5098113;28;19915;-71
2022/01/26 08:47:09;;;;;;;;;;;2.40;99.90;;;;;;5098168;28;20346;-71
2022/01/26 08:49:35;;;;;;;;;;;;;;;;;;5097401;28;19939;-73
2022/01/26 08:52:01;;;;;;;;;;;;;;;;;;5098686;28;20428;-73
2022/01/26 08:54:26;;;;;;;;;;;;;;;;;;5097794;28;20005;-72
2022/01/26 08:56:52;;;;;;;;;;;;;;;;;;5106337;28;19937;-73
2022/01/26 08:59:18;;;;;;;;;;;;;;;;;;5106289;28;19912;-70
2022/01/26 09:01:44;;;;;;;;;;;;;;;;;;5103985;28;19918;-73
2022/01/26 09:04:10;;;;;;;;;;;;;;;;;;5096568;28;19951;-71
2022/01/26 09:06:49;;;;;;;;;;;;;;;;;;5070696;28;20007;-71
2022/01/26 09:09:15;;;;;;;;;;;;;;;;;;5091835;28;19916;-69
2022/01/26 09:11:42;;;;;;;;;;;;;;;;;;5098782;28;19914;-75
2022/01/26 09:14:08;;;;;;;;;;;2.40;99.90;;;;;;5112948;28;19908;-73
2022/01/26 09:16:35;;;;;;;;;;;2.30;99.90;;;;;;5109177;28;19953;-71
2022/01/26 09:19:08;;;;;;;;;;;2.30;99.90;;;;;;5104189;28;20011;-70
2022/01/26 09:21:35;;;;;;;;;;;2.20;99.90;;;;;;5084871;28;19917;-71
2022/01/26 09:24:01;;;;;;;;;;;2.30;99.90;;;;;;5081516;28;19908;-71
2022/01/26 09:26:26;;;;;;;;;;;2.30;99.90;;;;;;5114063;28;19915;-71
2022/01/26 09:28:52;;;;;;;;;;;;;;;;;;5113803;28;19973;-73
2022/01/26 09:31:18;;;;;;;;;;;;;;;;;;5112460;28;19927;-70
2022/01/26 09:33:43;;;;;;;;;;;2.20;99.90;;;;;;5097902;28;19915;-71
2022/01/26 09:36:09;;;;;;;;;;;2.20;99.90;;;;;;5096433;28;19912;-72
2022/01/26 09:38:34;;;;;;;;;;;2.20;99.90;;;;;;5096181;28;20002;-71
2022/01/26 09:41:00;;;;;;;;;;;2.30;99.90;;;;;;5076860;28;19904;-75
2022/01/26 09:43:27;;;;;;;;;;;;;;;;;;5115650;28;19908;-73
2022/01/26 09:45:53;;;;;;;;;;;;;;;;;;5115194;28;20298;-72
2022/01/26 09:48:18;;;;;;;;;;;2.40;99.90;;;;;;5115649;28;19927;-72
2022/01/26 09:50:45;;;;;;;;;;;2.30;99.90;;;;;;5115445;28;20006;-71
2022/01/26 09:53:16;;;;;;;;;;;2.40;99.90;;;;;;5115860;28;19961;-70
2022/01/26 09:55:42;;;;;;;;;;;;;;;;;;5115662;28;20010;-78
2022/01/26 09:58:08;;;;;;;;;;;2.40;99.90;;;;;;5115855;28;19915;-69
2022/01/26 10:00:34;;;;;;;;;;;2.40;99.90;;;;;;5115896;28;19908;-69
2022/01/26 10:03:00;;;;;;;;;;;;;;;;;;5091776;28;20065;-73
2022/01/26 10:05:25;;;;;;;;;;;2.40;99.90;;;;;;5095414;28;20057;-73
2022/01/26 10:08:00;;;;;;;;;;;;;;;;;;5092000;28;19920;-75
2022/01/26 10:16:39;;;;;;;;;;;;;;;;;;5090331;28;20349;-70
2022/01/26 10:19:00;;;;;;;;;;;2.40;99.90;;;;;;5114440;28;20018;-70
2022/01/26 10:21:26;;;;;;;;;;;3.50;99.90;;;;;;5108104;28;19960;-69
2022/01/26 10:23:52;;;;;;;;;;;;;;;;;;5103567;28;19919;-71
2022/01/26 10:26:19;;;;;;;;;;;;;;;;;;5115795;28;19908;-70
2022/01/26 10:28:45;;;;;;;;;;;;;;;;;;5114631;28;19915;-71
2022/01/26 10:31:19;;;;;;;;;;;4.60;97.10;;;;;;5115293;28;20073;-68
2022/01/26 10:33:58;;;;;;;;;;;5.70;97.30;;;;;;5114686;28;19907;-71
2022/01/26 10:36:25;;;;;;;;;;;5.30;93.40;;;;;;5115435;28;20383;-68
2022/01/26 10:39:01;;;;;;;;;;;4.40;95.50;;;;;;5114978;28;19908;-73
2022/01/26 10:41:26;;;;;;;;;;;5.00;95.80;;;;;;5114889;28;19908;-72
2022/01/26 10:43:55;;;;;;;;;;;4.90;92.80;;;;;;5114498;28;19920;-64
2022/01/26 10:46:36;;;;;;;;;;;4.90;94.40;;;;;;5097291;28;19908;-65
2022/01/26 10:49:08;;;;;;;;;;;;;;;;;;5090977;28;20028;-72
2022/01/26 10:57:01;;;;;;;;;;;;;;;;;;5090236;28;19973;-71
2022/01/26 10:59:27;;;;;;;;;;;2.40;99.90;;;;;;5090607;28;19912;-72
2022/01/26 11:01:53;;;;;;;;;;;;;;;;;;5090180;28;20474;-72
2022/01/26 11:04:18;;;;;;;;;;;;;;;;;;5091773;28;19939;-73
2022/01/26 11:06:44;;;;;;;;;;;;;;;;;;5111176;28;19951;-77
2022/01/26 11:09:12;;;;;;;;;;;;;;;;;;5091364;28;19949;-72
2022/01/26 11:11:41;;;;;;;;;;;;;;;;;;5110443;28;19919;-70
2022/01/26 11:14:14;;;;;;;;;;;2.60;99.90;;;;;;5105055;28;19922;-71
2022/01/26 11:16:50;;;;;;;;;;;2.50;99.90;;;;;;5111506;28;20006;-71
2022/01/26 11:19:16;;;;;;;;;;;;;;;;;;5111005;28;19943;-71
2022/01/26 11:21:43;;;;;;;;;;;;;;;;;;5101820;28;19990;-72
2022/01/26 11:24:18;;;;;;;;;;;2.40;99.90;;;;;;5093786;28;19904;-73
2022/01/26 11:26:45;;;;;;;;;;;2.60;99.90;;;;;;5098369;28;19908;-72
2022/01/26 11:29:14;;;;;;;;;;;2.40;99.90;;;;;;5102190;28;19964;-68
2022/01/26 11:31:41;;;;;;;;;;;;;;;;;;5102614;28;19995;-72
2022/01/26 11:34:07;;;;;;;;;;;2.30;99.90;;;;;;5101705;28;20304;-78
2022/01/26 11:36:33;;;;;;;;;;;;;;;;;;5102484;28;19991;-69
2022/01/26 11:46:56;;;;;;;;;;;2.40;99.90;;;;;;5093222;28;19931;-69
2022/01/26 11:49:23;;;;;;;;;;;2.30;99.90;;;;;;5080843;28;19969;-70
2022/01/26 11:51:50;;;;;;;;;;;2.40;99.90;;;;;;5102705;28;19904;-70
2022/01/26 11:54:17;;;;;;;;;;;2.30;99.90;;;;;;5095252;28;20435;-70
2022/01/26 11:56:42;;;;;;;;;;;;;;;;;;5093875;28;19912;-70
2022/01/26 11:59:08;;;;;;;;;;;;;;;;;;5100232;28;19913;-70
2022/01/26 12:01:39;;;;;;;;;;;;;;;;;;5101397;28;20408;-70
2022/01/26 12:04:11;;;;;;;;;;;2.30;99.90;;;;;;5113506;28;20355;-70
2022/01/26 12:06:42;;;;;;;;;;;2.30;99.90;;;;;;5100814;28;19912;-69
2022/01/26 12:09:09;;;;;;;;;;;2.40;99.90;;;;;;5092983;28;19919;-70
2022/01/26 12:11:35;;;;;;;;;;;2.40;99.90;;;;;;5093563;28;20312;-70
2022/01/26 12:14:02;;;;;;;;;;;2.40;99.90;;;;;;5110449;28;19988;-70
2022/01/26 12:16:44;;;;;;;;;;;2.40;99.90;;;;;;5113964;28;19911;-70
2022/01/26 12:33:16;;;;;;;;;;;;;;;;;;5109067;28;19922;-71
2022/01/26 12:38:20;;;;;;;;;;;2.50;99.90;;;;;;5100767;28;19994;-71
2022/01/26 12:43:43;;;;;;;;;;;2.40;99.90;;;;;;5101962;28;19911;-70
2022/01/26 12:46:08;;;;;;;;;;;;;;;;;;5101392;28;19995;-71
2022/01/26 12:48:37;;;;;;;;;;;2.60;99.90;;;;;;5101881;28;19955;-70
2022/01/26 12:51:03;;;;;;;;;;;;;;;;;;5112170;28;19910;-70
2022/01/26 12:53:30;;;;;;;;;;;2.60;99.90;;;;;;5113364;28;19907;-69
2022/01/26 12:55:56;;;;;;;;;;;;;;;;;;5112469;28;19908;-70
2022/01/26 12:58:22;;;;;;;;;;;;;;;;;;5113439;28;20006;-70
2022/01/26 13:00:48;;;;;;;;;;;;;;;;;;5113288;28;20037;-70
2022/01/26 13:03:15;;;;;;;;;;;2.40;99.90;;;;;;5113285;28;19904;-71
2022/01/26 13:05:40;;;;;;;;;;;;;;;;;;5116883;28;19904;-71
2022/01/26 13:08:07;;;;;;;;;;;2.50;99.90;;;;;;5114642;28;19927;-70
2022/01/26 13:10:33;;;;;;;;;;;;;;;;;;5118349;28;19980;-71
2022/01/26 13:13:22;;;;;;;;;;;2.70;99.90;;;;;;5118395;28;19907;-75
2022/01/26 13:15:59;;;;;;;;;;;2.60;99.90;;;;;;5117398;28;19912;-69
2022/01/26 13:18:59;;;;;;;;;;;;;;;;;;5117409;28;20396;-71
2022/01/26 13:26:47;;;;;;;;;;;2.50;99.90;;;;;;5117216;28;19911;-72
2022/01/26 13:29:28;;;;;;;;;;;2.60;99.90;;;;;;5116475;28;19982;-73
2022/01/26 13:37:40;;;;;;;;;;;2.60;99.90;;;;;;5116687;28;19995;-75
2022/01/26 13:48:16;;;;;;;;;;;2.50;99.90;;;;;;5116377;28;19923;-72
2022/01/26 13:50:54;;;;;;;;;;;;;;;;;;5116387;28;19903;-74
2022/01/26 13:53:25;;;;;;;;;;;;;;;;;;5116383;28;20404;-75
2022/01/26 13:56:04;;;;;;;;;;;;;;;;;;5116656;28;20457;-77
2022/01/26 13:58:46;;;;;;;;;;;2.50;99.90;;;;;;5116539;28;20327;-76
2022/01/26 14:01:20;;;;;;;;;;;2.50;99.90;;;;;;5097667;28;20208;-76
2022/01/26 14:03:49;;;;;;;;;;;2.50;99.90;;;;;;5116513;28;20002;-76
2022/01/26 14:06:15;;;;;;;;;;;2.50;99.90;;;;;;5115655;28;20370;-76
2022/01/26 14:08:41;;;;;;;;;;;2.50;99.90;;;;;;5115980;28;19912;-75
2022/01/26 14:11:07;;;;;;;;;;;2.50;99.90;;;;;;5115511;28;19903;-76
2022/01/26 14:13:35;;;;;;;;;;;;;;;;;;5116419;28;19991;-76
2022/01/26 14:16:00;;;;;;;;;;;2.50;99.90;;;;;;5096530;28;19911;-71
2022/01/26 14:20:56;;;;;;;;;;;2.60;99.90;;;;;;5116158;28;20358;-74
2022/01/26 14:25:50;;;;;;;;;;;;;;;;;;5115929;28;19911;-75
2022/01/26 14:28:19;;;;;;;;;;;2.50;99.90;;;;;;5115026;28;20372;-75
2022/01/26 14:36:28;;;;;;;;;;;2.50;99.90;;;;;;5059505;28;19908;-71
2022/01/26 14:55:56;;;;;;;;;;;2.50;99.90;;;;;;5035734;28;20381;-70
2022/01/26 15:34:15;;;;;;;;;;;2.50;99.90;;;;;;5114337;28;19912;-71
2022/01/26 15:42:20;;;;;;;;;;;;;;;;;;5094186;28;20018;-71
2022/01/26 15:58:28;;;;;;;;;;;;;;;;;;5104392;28;20366;-74
2022/01/26 16:07:15;;;;;;;;;;;;;;;;;;5109438;28;20004;-74
2022/01/26 16:37:13;;;;;;;;;;;2.40;99.90;;;;;;5109285;28;20412;-74
2022/01/26 16:39:24;;;;;;;;;;;;;;;;;;5094500;28;19916;-76
